sensor_id;sensor_type;location;lat;lon;timestamp;temperature;humidity
26952;DHT22;14507;52.418;13.398;2023-01-10T00:01:48;7.00;99.90
26952;DHT22;14507;52.418;13.398;2023-01-10T00:04:13;7.00;99.90
26952;DHT22;14507;52.418;13.398;2023-01-10T00:06:39;6.90;99.90
26952;DHT22;14507;52.418;13.398;2023-01-10T00:09:05;7.00;99.90
26952;DHT22;14507;52.418;13.398;2023-01-10T00:11:30;7.00;99.90
26952;DHT22;14507;52.418;13.398;2023-01-10T00:14:14;7.00;99.90
26952;DHT22;14507;52.418;13.398;2023-01-10T00:16:40;7.00;99.90
26952;DHT22;14507;52.418;13.398;2023-01-10T00:19:07;7.00;99.90
26952;DHT22;14507;52.418;13.398;2023-01-10T00:21:35;6.90;99.90
26952;DHT22;14507;52.418;13.398;2023-01-10T00:24:01;6.90;99.90
26952;DHT22;14507;52.418;13.398;2023-01-10T00:26:48;6.90;99.90
26952;DHT22;14507;52.418;13.398;2023-01-10T00:29:21;6.90;99.90
26952;DHT22;14507;52.418;13.398;2023-01-10T00:31:49;6.90;99.90
26952;DHT22;14507;52.418;13.398;2023-01-10T00:34:14;6.80;99.90
26952;DHT22;14507;52.418;13.398;2023-01-10T00:36:40;6.90;99.90
26952;DHT22;14507;52.418;13.398;2023-01-10T00:39:06;6.90;99.90
26952;DHT22;14507;52.418;13.398;2023-01-10T00:41:34;6.90;99.90
26952;DHT22;14507;52.418;13.398;2023-01-10T00:44:18;6.90;99.90
26952;DHT22;14507;52.418;13.398;2023-01-10T00:46:43;6.90;99.90
26952;DHT22;14507;52.418;13.398;2023-01-10T00:49:09;6.90;99.90
26952;DHT22;14507;52.418;13.398;2023-01-10T00:51:36;6.90;99.90
26952;DHT22;14507;52.418;13.398;2023-01-10T00:54:02;6.90;99.90
26952;DHT22;14507;52.418;13.398;2023-01-10T00:56:28;6.90;99.90
26952;DHT22;14507;52.418;13.398;2023-01-10T00:58:54;6.90;99.90
26952;DHT22;14507;52.418;13.398;2023-01-10T01:01:19;6.90;99.90
26952;DHT22;14507;52.418;13.398;2023-01-10T01:03:45;6.90;99.90
26952;DHT22;14507;52.418;13.398;2023-01-10T01:06:10;6.90;99.90
26952;DHT22;14507;52.418;13.398;2023-01-10T01:08:36;7.00;99.90
26952;DHT22;14507;52.418;13.398;2023-01-10T01:11:02;7.00;99.90
26952;DHT22;14507;52.418;13.398;2023-01-10T01:13:28;7.00;99.90
26952;DHT22;14507;52.418;13.398;2023-01-10T01:15:57;7.00;99.90
26952;DHT22;14507;52.418;13.398;2023-01-10T01:18:23;7.00;99.90
26952;DHT22;14507;52.418;13.398;2023-01-10T01:20:57;7.00;99.90
26952;DHT22;14507;52.418;13.398;2023-01-10T01:23:25;7.00;99.90
26952;DHT22;14507;52.418;13.398;2023-01-10T01:25:52;7.00;99.90
26952;DHT22;14507;52.418;13.398;2023-01-10T01:28:18;7.00;99.90
26952;DHT22;14507;52.418;13.398;2023-01-10T01:30:44;7.00;99.90
26952;DHT22;14507;52.418;13.398;2023-01-10T01:33:10;7.00;99.90
26952;DHT22;14507;52.418;13.398;2023-01-10T01:35:36;7.00;99.90
26952;DHT22;14507;52.418;13.398;2023-01-10T01:38:01;7.00;99.90
26952;DHT22;14507;52.418;13.398;2023-01-10T01:40:27;7.00;99.90
26952;DHT22;14507;52.418;13.398;2023-01-10T01:42:53;6.90;99.90
26952;DHT22;14507;52.418;13.398;2023-01-10T01:50:47;6.90;99.90
26952;DHT22;14507;52.418;13.398;2023-01-10T01:53:22;6.90;99.90
26952;DHT22;14507;52.418;13.398;2023-01-10T01:55:49;6.90;99.90
26952;DHT22;14507;52.418;13.398;2023-01-10T01:58:19;7.00;99.90
26952;DHT22;14507;52.418;13.398;2023-01-10T02:00:46;7.00;99.90
26952;DHT22;14507;52.418;13.398;2023-01-10T02:03:13;7.00;99.90
26952;DHT22;14507;52.418;13.398;2023-01-10T02:05:39;6.90;99.90
26952;DHT22;14507;52.418;13.398;2023-01-10T02:08:07;6.90;99.90
26952;DHT22;14507;52.418;13.398;2023-01-10T02:13:19;6.90;99.90
26952;DHT22;14507;52.418;13.398;2023-01-10T02:15:46;6.90;99.90
26952;DHT22;14507;52.418;13.398;2023-01-10T02:18:12;6.90;99.90
26952;DHT22;14507;52.418;13.398;2023-01-10T02:21:18;6.90;99.90
26952;DHT22;14507;52.418;13.398;2023-01-10T02:27:32;6.80;99.90
26952;DHT22;14507;52.418;13.398;2023-01-10T02:44:03;6.80;99.90
26952;DHT22;14507;52.418;13.398;2023-01-10T02:46:32;6.80;99.90
26952;DHT22;14507;52.418;13.398;2023-01-10T02:48:59;6.90;99.90
26952;DHT22;14507;52.418;13.398;2023-01-10T02:51:27;6.80;99.90
26952;DHT22;14507;52.418;13.398;2023-01-10T02:54:04;6.80;99.90
26952;DHT22;14507;52.418;13.398;2023-01-10T03:02:42;6.90;99.90
26952;DHT22;14507;52.418;13.398;2023-01-10T03:05:17;6.90;99.90
26952;DHT22;14507;52.418;13.398;2023-01-10T03:10:58;6.90;99.90
26952;DHT22;14507;52.418;13.398;2023-01-10T03:13:25;6.90;99.90
26952;DHT22;14507;52.418;13.398;2023-01-10T03:15:53;6.90;99.90
26952;DHT22;14507;52.418;13.398;2023-01-10T03:18:25;6.90;99.90
26952;DHT22;14507;52.418;13.398;2023-01-10T03:20:53;6.90;99.90
26952;DHT22;14507;52.418;13.398;2023-01-10T03:23:21;6.90;99.90
26952;DHT22;14507;52.418;13.398;2023-01-10T03:25:50;6.90;99.90
26952;DHT22;14507;52.418;13.398;2023-01-10T03:28:25;6.90;99.90
26952;DHT22;14507;52.418;13.398;2023-01-10T03:31:01;6.90;99.90
26952;DHT22;14507;52.418;13.398;2023-01-10T03:33:30;6.90;99.90
26952;DHT22;14507;52.418;13.398;2023-01-10T03:36:18;7.00;99.90
26952;DHT22;14507;52.418;13.398;2023-01-10T03:38:54;7.00;99.90
26952;DHT22;14507;52.418;13.398;2023-01-10T03:49:27;7.00;99.90
26952;DHT22;14507;52.418;13.398;2023-01-10T03:51:53;7.00;99.90
26952;DHT22;14507;52.418;13.398;2023-01-10T03:54:21;7.00;99.90
26952;DHT22;14507;52.418;13.398;2023-01-10T03:56:48;7.00;99.90
26952;DHT22;14507;52.418;13.398;2023-01-10T03:59:19;7.00;99.90
26952;DHT22;14507;52.418;13.398;2023-01-10T04:01:46;7.10;99.90
26952;DHT22;14507;52.418;13.398;2023-01-10T04:04:11;7.10;99.90
26952;DHT22;14507;52.418;13.398;2023-01-10T04:06:37;7.10;99.90
26952;DHT22;14507;52.418;13.398;2023-01-10T04:09:03;7.10;99.90
26952;DHT22;14507;52.418;13.398;2023-01-10T04:11:29;7.00;99.90
26952;DHT22;14507;52.418;13.398;2023-01-10T04:13:54;7.10;99.90
26952;DHT22;14507;52.418;13.398;2023-01-10T04:16:20;7.00;99.90
26952;DHT22;14507;52.418;13.398;2023-01-10T04:18:46;7.00;99.90
26952;DHT22;14507;52.418;13.398;2023-01-10T04:21:11;7.00;99.90
26952;DHT22;14507;52.418;13.398;2023-01-10T04:23:37;7.00;99.90
26952;DHT22;14507;52.418;13.398;2023-01-10T04:26:03;7.00;99.90
26952;DHT22;14507;52.418;13.398;2023-01-10T04:28:28;7.00;99.90
26952;DHT22;14507;52.418;13.398;2023-01-10T04:30:54;6.90;99.90
26952;DHT22;14507;52.418;13.398;2023-01-10T04:33:19;6.90;99.90
26952;DHT22;14507;52.418;13.398;2023-01-10T04:35:50;6.90;99.90
26952;DHT22;14507;52.418;13.398;2023-01-10T04:38:16;6.90;99.90
26952;DHT22;14507;52.418;13.398;2023-01-10T04:40:43;6.90;99.90
26952;DHT22;14507;52.418;13.398;2023-01-10T04:43:09;6.80;99.90
26952;DHT22;14507;52.418;13.398;2023-01-10T04:45:35;6.80;99.90
26952;DHT22;14507;52.418;13.398;2023-01-10T04:48:02;6.80;99.90
26952;DHT22;14507;52.418;13.398;2023-01-10T04:50:27;6.80;99.90
26952;DHT22;14507;52.418;13.398;2023-01-10T04:52:53;6.80;99.90
26952;DHT22;14507;52.418;13.398;2023-01-10T04:55:19;6.80;99.90
26952;DHT22;14507;52.418;13.398;2023-01-10T04:57:45;6.90;99.90
26952;DHT22;14507;52.418;13.398;2023-01-10T05:00:11;6.80;99.90
26952;DHT22;14507;52.418;13.398;2023-01-10T05:02:37;6.80;99.90
26952;DHT22;14507;52.418;13.398;2023-01-10T05:05:12;6.80;99.90
26952;DHT22;14507;52.418;13.398;2023-01-10T05:07:39;6.80;99.90
26952;DHT22;14507;52.418;13.398;2023-01-10T05:10:06;6.80;99.90
26952;DHT22;14507;52.418;13.398;2023-01-10T05:12:32;6.80;99.90
26952;DHT22;14507;52.418;13.398;2023-01-10T05:14:58;6.80;99.90
26952;DHT22;14507;52.418;13.398;2023-01-10T05:17:24;6.80;99.90
26952;DHT22;14507;52.418;13.398;2023-01-10T05:19:49;6.80;99.90
26952;DHT22;14507;52.418;13.398;2023-01-10T05:22:15;6.90;99.90
26952;DHT22;14507;52.418;13.398;2023-01-10T05:24:41;6.90;99.90
26952;DHT22;14507;52.418;13.398;2023-01-10T05:27:06;6.90;99.90
26952;DHT22;14507;52.418;13.398;2023-01-10T05:29:32;6.80;99.90
26952;DHT22;14507;52.418;13.398;2023-01-10T05:31:58;6.90;99.90
26952;DHT22;14507;52.418;13.398;2023-01-10T05:34:24;6.90;99.90
26952;DHT22;14507;52.418;13.398;2023-01-10T05:36:50;6.90;99.90
26952;DHT22;14507;52.418;13.398;2023-01-10T05:39:15;6.90;99.90
26952;DHT22;14507;52.418;13.398;2023-01-10T05:41:41;6.80;99.90
26952;DHT22;14507;52.418;13.398;2023-01-10T05:44:07;6.80;99.90
26952;DHT22;14507;52.418;13.398;2023-01-10T05:46:32;6.80;99.90
26952;DHT22;14507;52.418;13.398;2023-01-10T05:48:58;6.80;99.90
26952;DHT22;14507;52.418;13.398;2023-01-10T05:51:24;6.90;99.90
26952;DHT22;14507;52.418;13.398;2023-01-10T05:53:50;6.90;99.90
26952;DHT22;14507;52.418;13.398;2023-01-10T05:56:15;6.90;99.90
26952;DHT22;14507;52.418;13.398;2023-01-10T05:58:41;7.20;99.90
26952;DHT22;14507;52.418;13.398;2023-01-10T06:01:07;6.90;99.90
26952;DHT22;14507;52.418;13.398;2023-01-10T06:03:33;6.90;99.90
26952;DHT22;14507;52.418;13.398;2023-01-10T06:05:59;6.90;99.90
26952;DHT22;14507;52.418;13.398;2023-01-10T06:08:25;6.80;99.90
26952;DHT22;14507;52.418;13.398;2023-01-10T06:10:51;6.80;99.90
26952;DHT22;14507;52.418;13.398;2023-01-10T06:13:16;6.90;99.90
26952;DHT22;14507;52.418;13.398;2023-01-10T06:15:42;6.90;99.90
26952;DHT22;14507;52.418;13.398;2023-01-10T06:18:08;6.90;99.90
26952;DHT22;14507;52.418;13.398;2023-01-10T06:20:34;6.90;99.90
26952;DHT22;14507;52.418;13.398;2023-01-10T06:23:00;6.90;99.90
26952;DHT22;14507;52.418;13.398;2023-01-10T06:25:32;6.90;99.90
26952;DHT22;14507;52.418;13.398;2023-01-10T06:28:00;6.90;99.90
26952;DHT22;14507;52.418;13.398;2023-01-10T06:30:25;6.90;99.90
26952;DHT22;14507;52.418;13.398;2023-01-10T06:32:51;6.90;99.90
26952;DHT22;14507;52.418;13.398;2023-01-10T06:35:17;7.00;99.90
26952;DHT22;14507;52.418;13.398;2023-01-10T06:37:43;7.00;99.90
26952;DHT22;14507;52.418;13.398;2023-01-10T06:40:09;6.90;99.90
26952;DHT22;14507;52.418;13.398;2023-01-10T06:42:35;6.90;99.90
26952;DHT22;14507;52.418;13.398;2023-01-10T06:45:00;6.90;99.90
26952;DHT22;14507;52.418;13.398;2023-01-10T06:47:26;6.90;99.90
26952;DHT22;14507;52.418;13.398;2023-01-10T06:49:52;6.90;99.90
26952;DHT22;14507;52.418;13.398;2023-01-10T06:52:17;6.90;99.90
26952;DHT22;14507;52.418;13.398;2023-01-10T06:54:43;6.90;99.90
26952;DHT22;14507;52.418;13.398;2023-01-10T06:57:09;6.90;99.90
26952;DHT22;14507;52.418;13.398;2023-01-10T06:59:34;6.90;99.90
26952;DHT22;14507;52.418;13.398;2023-01-10T07:02:00;6.90;99.90
26952;DHT22;14507;52.418;13.398;2023-01-10T07:04:26;6.90;99.90
26952;DHT22;14507;52.418;13.398;2023-01-10T07:06:52;6.80;99.90
26952;DHT22;14507;52.418;13.398;2023-01-10T07:09:18;6.90;99.90
26952;DHT22;14507;52.418;13.398;2023-01-10T07:11:44;6.90;99.90
26952;DHT22;14507;52.418;13.398;2023-01-10T07:14:09;6.90;99.90
26952;DHT22;14507;52.418;13.398;2023-01-10T07:16:35;6.90;99.90
26952;DHT22;14507;52.418;13.398;2023-01-10T07:19:01;7.00;99.90
26952;DHT22;14507;52.418;13.398;2023-01-10T07:21:27;6.90;99.90
26952;DHT22;14507;52.418;13.398;2023-01-10T07:23:52;7.00;99.90
26952;DHT22;14507;52.418;13.398;2023-01-10T07:26:18;7.00;99.90
26952;DHT22;14507;52.418;13.398;2023-01-10T07:28:46;7.00;99.90
26952;DHT22;14507;52.418;13.398;2023-01-10T07:31:15;7.00;99.90
26952;DHT22;14507;52.418;13.398;2023-01-10T07:33:41;7.00;99.90
26952;DHT22;14507;52.418;13.398;2023-01-10T07:36:07;6.90;99.90
26952;DHT22;14507;52.418;13.398;2023-01-10T07:38:33;6.90;99.90
26952;DHT22;14507;52.418;13.398;2023-01-10T07:41:01;6.90;99.90
26952;DHT22;14507;52.418;13.398;2023-01-10T07:43:27;6.90;99.90
26952;DHT22;14507;52.418;13.398;2023-01-10T07:45:52;6.90;99.90
26952;DHT22;14507;52.418;13.398;2023-01-10T07:48:18;6.90;99.90
26952;DHT22;14507;52.418;13.398;2023-01-10T07:50:44;6.90;99.90
26952;DHT22;14507;52.418;13.398;2023-01-10T07:53:09;6.80;99.90
26952;DHT22;14507;52.418;13.398;2023-01-10T07:55:36;6.80;99.90
26952;DHT22;14507;52.418;13.398;2023-01-10T07:58:05;6.80;99.90
26952;DHT22;14507;52.418;13.398;2023-01-10T08:00:32;6.80;99.90
26952;DHT22;14507;52.418;13.398;2023-01-10T08:02:58;6.80;99.90
26952;DHT22;14507;52.418;13.398;2023-01-10T08:05:24;6.90;99.90
26952;DHT22;14507;52.418;13.398;2023-01-10T08:07:49;6.90;99.90
26952;DHT22;14507;52.418;13.398;2023-01-10T08:10:15;6.90;99.90
26952;DHT22;14507;52.418;13.398;2023-01-10T08:12:41;6.90;99.90
26952;DHT22;14507;52.418;13.398;2023-01-10T08:15:07;6.80;99.90
26952;DHT22;14507;52.418;13.398;2023-01-10T08:17:34;6.90;99.90
26952;DHT22;14507;52.418;13.398;2023-01-10T08:20:00;7.00;99.90
26952;DHT22;14507;52.418;13.398;2023-01-10T08:22:25;7.00;99.90
26952;DHT22;14507;52.418;13.398;2023-01-10T08:24:51;7.00;99.90
26952;DHT22;14507;52.418;13.398;2023-01-10T08:27:17;7.00;99.90
26952;DHT22;14507;52.418;13.398;2023-01-10T08:29:43;7.10;99.90
26952;DHT22;14507;52.418;13.398;2023-01-10T08:32:09;7.10;99.90
26952;DHT22;14507;52.418;13.398;2023-01-10T08:34:35;7.10;99.90
26952;DHT22;14507;52.418;13.398;2023-01-10T08:37:00;7.10;99.90
26952;DHT22;14507;52.418;13.398;2023-01-10T08:39:27;7.10;99.90
26952;DHT22;14507;52.418;13.398;2023-01-10T08:41:54;7.20;99.90
26952;DHT22;14507;52.418;13.398;2023-01-10T08:44:20;7.20;99.90
26952;DHT22;14507;52.418;13.398;2023-01-10T08:46:46;7.20;99.90
26952;DHT22;14507;52.418;13.398;2023-01-10T08:49:12;7.20;99.90
26952;DHT22;14507;52.418;13.398;2023-01-10T08:51:37;7.30;99.90
26952;DHT22;14507;52.418;13.398;2023-01-10T08:54:03;7.20;99.90
26952;DHT22;14507;52.418;13.398;2023-01-10T08:56:29;7.30;99.90
26952;DHT22;14507;52.418;13.398;2023-01-10T08:58:55;7.30;99.90
26952;DHT22;14507;52.418;13.398;2023-01-10T09:01:20;7.30;99.90
26952;DHT22;14507;52.418;13.398;2023-01-10T09:03:46;7.40;99.90
26952;DHT22;14507;52.418;13.398;2023-01-10T09:06:11;7.50;99.90
26952;DHT22;14507;52.418;13.398;2023-01-10T09:08:37;7.50;99.90
26952;DHT22;14507;52.418;13.398;2023-01-10T09:11:04;7.50;99.90
26952;DHT22;14507;52.418;13.398;2023-01-10T09:13:30;7.60;99.90
26952;DHT22;14507;52.418;13.398;2023-01-10T09:15:56;7.60;99.90
26952;DHT22;14507;52.418;13.398;2023-01-10T09:18:22;7.70;99.90
26952;DHT22;14507;52.418;13.398;2023-01-10T09:20:49;7.80;99.90
26952;DHT22;14507;52.418;13.398;2023-01-10T09:23:17;7.80;99.90
26952;DHT22;14507;52.418;13.398;2023-01-10T09:25:49;8.00;99.90
26952;DHT22;14507;52.418;13.398;2023-01-10T09:28:16;8.00;99.90
26952;DHT22;14507;52.418;13.398;2023-01-10T09:30:42;8.00;99.90
26952;DHT22;14507;52.418;13.398;2023-01-10T09:33:08;8.00;99.90
26952;DHT22;14507;52.418;13.398;2023-01-10T09:35:35;8.10;99.90
26952;DHT22;14507;52.418;13.398;2023-01-10T09:38:02;8.10;99.90
26952;DHT22;14507;52.418;13.398;2023-01-10T09:48:48;8.30;99.90
26952;DHT22;14507;52.418;13.398;2023-01-10T09:54:05;8.10;99.90
26952;DHT22;14507;52.418;13.398;2023-01-10T09:56:32;8.10;99.90
26952;DHT22;14507;52.418;13.398;2023-01-10T09:58:59;8.10;99.90
26952;DHT22;14507;52.418;13.398;2023-01-10T10:01:32;8.10;99.90
26952;DHT22;14507;52.418;13.398;2023-01-10T10:04:25;8.20;99.90
26952;DHT22;14507;52.418;13.398;2023-01-10T10:06:52;8.20;99.90
26952;DHT22;14507;52.418;13.398;2023-01-10T10:09:25;8.10;99.90
26952;DHT22;14507;52.418;13.398;2023-01-10T10:23:19;8.00;99.90
26952;DHT22;14507;52.418;13.398;2023-01-10T10:26:00;8.10;99.90
26952;DHT22;14507;52.418;13.398;2023-01-10T10:31:36;8.20;99.90
26952;DHT22;14507;52.418;13.398;2023-01-10T10:34:31;8.40;99.90
26952;DHT22;14507;52.418;13.398;2023-01-10T10:37:11;8.50;99.90
26952;DHT22;14507;52.418;13.398;2023-01-10T10:39:53;8.60;99.90
26952;DHT22;14507;52.418;13.398;2023-01-10T10:42:20;8.70;99.90
26952;DHT22;14507;52.418;13.398;2023-01-10T10:44:53;8.60;99.90
26952;DHT22;14507;52.418;13.398;2023-01-10T10:47:22;8.70;99.90
26952;DHT22;14507;52.418;13.398;2023-01-10T10:50:00;8.70;99.90
26952;DHT22;14507;52.418;13.398;2023-01-10T10:52:32;8.70;99.90
26952;DHT22;14507;52.418;13.398;2023-01-10T10:54:59;8.70;99.90
26952;DHT22;14507;52.418;13.398;2023-01-10T10:57:27;8.70;99.90
26952;DHT22;14507;52.418;13.398;2023-01-10T10:59:54;8.60;99.90
26952;DHT22;14507;52.418;13.398;2023-01-10T11:02:27;8.60;99.90
26952;DHT22;14507;52.418;13.398;2023-01-10T11:04:57;8.60;99.90
26952;DHT22;14507;52.418;13.398;2023-01-10T11:07:24;8.60;99.90
26952;DHT22;14507;52.418;13.398;2023-01-10T11:09:53;8.60;99.90
26952;DHT22;14507;52.418;13.398;2023-01-10T11:12:38;8.50;99.90
26952;DHT22;14507;52.418;13.398;2023-01-10T11:15:10;8.60;99.90
26952;DHT22;14507;52.418;13.398;2023-01-10T11:17:35;8.60;99.90
26952;DHT22;14507;52.418;13.398;2023-01-10T11:20:13;8.60;99.90
26952;DHT22;14507;52.418;13.398;2023-01-10T11:22:48;8.70;99.90
26952;DHT22;14507;52.418;13.398;2023-01-10T11:25:17;8.80;99.90
26952;DHT22;14507;52.418;13.398;2023-01-10T11:27:54;8.80;99.90
26952;DHT22;14507;52.418;13.398;2023-01-10T11:30:29;8.90;99.90
26952;DHT22;14507;52.418;13.398;2023-01-10T11:33:01;8.90;99.90
26952;DHT22;14507;52.418;13.398;2023-01-10T11:35:31;8.90;99.90
26952;DHT22;14507;52.418;13.398;2023-01-10T11:40:35;9.00;99.90
26952;DHT22;14507;52.418;13.398;2023-01-10T11:43:56;9.00;99.90
26952;DHT22;14507;52.418;13.398;2023-01-10T11:46:22;9.10;99.90
26952;DHT22;14507;52.418;13.398;2023-01-10T11:49:03;9.10;99.90
26952;DHT22;14507;52.418;13.398;2023-01-10T11:51:34;9.20;99.90
26952;DHT22;14507;52.418;13.398;2023-01-10T11:54:20;9.10;99.90
26952;DHT22;14507;52.418;13.398;2023-01-10T11:57:08;9.20;99.90
26952;DHT22;14507;52.418;13.398;2023-01-10T11:59:39;9.20;99.90
26952;DHT22;14507;52.418;13.398;2023-01-10T12:02:26;9.20;99.90
26952;DHT22;14507;52.418;13.398;2023-01-10T12:04:54;9.20;99.90
26952;DHT22;14507;52.418;13.398;2023-01-10T12:07:23;9.10;99.90
26952;DHT22;14507;52.418;13.398;2023-01-10T12:09:56;9.20;99.90
26952;DHT22;14507;52.418;13.398;2023-01-10T12:12:31;9.20;99.90
26952;DHT22;14507;52.418;13.398;2023-01-10T12:15:28;9.20;99.90
26952;DHT22;14507;52.418;13.398;2023-01-10T12:17:56;9.20;99.90
26952;DHT22;14507;52.418;13.398;2023-01-10T12:20:25;9.30;99.90
26952;DHT22;14507;52.418;13.398;2023-01-10T12:22:56;9.30;99.90
26952;DHT22;14507;52.418;13.398;2023-01-10T12:27:48;9.40;99.90
26952;DHT22;14507;52.418;13.398;2023-01-10T12:30:39;9.40;99.90
26952;DHT22;14507;52.418;13.398;2023-01-10T12:33:15;9.40;99.90
26952;DHT22;14507;52.418;13.398;2023-01-10T12:36:09;9.40;99.90
26952;DHT22;14507;52.418;13.398;2023-01-10T12:39:22;9.40;99.90
26952;DHT22;14507;52.418;13.398;2023-01-10T12:44:42;9.40;99.90
26952;DHT22;14507;52.418;13.398;2023-01-10T12:47:20;9.30;99.90
26952;DHT22;14507;52.418;13.398;2023-01-10T12:52:51;9.30;99.90
26952;DHT22;14507;52.418;13.398;2023-01-10T12:55:23;9.20;99.90
26952;DHT22;14507;52.418;13.398;2023-01-10T12:57:52;9.20;99.90
26952;DHT22;14507;52.418;13.398;2023-01-10T13:00:22;9.20;99.90
26952;DHT22;14507;52.418;13.398;2023-01-10T13:02:52;9.20;99.90
26952;DHT22;14507;52.418;13.398;2023-01-10T13:05:25;9.10;99.90
26952;DHT22;14507;52.418;13.398;2023-01-10T13:07:53;9.10;99.90
26952;DHT22;14507;52.418;13.398;2023-01-10T13:10:21;9.10;99.90
26952;DHT22;14507;52.418;13.398;2023-01-10T13:13:15;9.10;99.90
26952;DHT22;14507;52.418;13.398;2023-01-10T13:18:23;8.80;99.90
26952;DHT22;14507;52.418;13.398;2023-01-10T13:21:07;9.10;99.90
26952;DHT22;14507;52.418;13.398;2023-01-10T13:24:06;9.10;99.90
26952;DHT22;14507;52.418;13.398;2023-01-10T13:27:01;9.10;99.90
26952;DHT22;14507;52.418;13.398;2023-01-10T13:29:31;9.00;99.90
26952;DHT22;14507;52.418;13.398;2023-01-10T13:32:19;9.00;99.90
26952;DHT22;14507;52.418;13.398;2023-01-10T13:34:46;8.90;99.90
26952;DHT22;14507;52.418;13.398;2023-01-10T13:39:55;8.90;99.90
26952;DHT22;14507;52.418;13.398;2023-01-10T13:42:29;8.90;99.90
26952;DHT22;14507;52.418;13.398;2023-01-10T13:45:15;8.90;99.90
26952;DHT22;14507;52.418;13.398;2023-01-10T13:55:49;8.70;99.90
26952;DHT22;14507;52.418;13.398;2023-01-10T14:04:34;8.70;99.90
26952;DHT22;14507;52.418;13.398;2023-01-10T14:07:21;8.60;99.90
26952;DHT22;14507;52.418;13.398;2023-01-10T14:09:49;8.60;99.90
26952;DHT22;14507;52.418;13.398;2023-01-10T14:12:25;8.60;99.90
26952;DHT22;14507;52.418;13.398;2023-01-10T14:14:57;8.60;99.90
26952;DHT22;14507;52.418;13.398;2023-01-10T14:17:29;8.60;99.90
26952;DHT22;14507;52.418;13.398;2023-01-10T14:20:06;8.50;99.90
26952;DHT22;14507;52.418;13.398;2023-01-10T14:22:39;8.50;99.90
26952;DHT22;14507;52.418;13.398;2023-01-10T14:25:19;8.50;99.90
26952;DHT22;14507;52.418;13.398;2023-01-10T14:27:48;8.50;99.90
26952;DHT22;14507;52.418;13.398;2023-01-10T14:30:21;8.50;99.90
26952;DHT22;14507;52.418;13.398;2023-01-10T14:32:51;8.40;99.90
26952;DHT22;14507;52.418;13.398;2023-01-10T14:35:23;8.40;99.90
26952;DHT22;14507;52.418;13.398;2023-01-10T14:37:57;8.30;99.90
26952;DHT22;14507;52.418;13.398;2023-01-10T14:40:36;8.30;99.90
26952;DHT22;14507;52.418;13.398;2023-01-10T14:43:24;8.20;99.90
26952;DHT22;14507;52.418;13.398;2023-01-10T14:45:53;8.20;99.90
26952;DHT22;14507;52.418;13.398;2023-01-10T14:48:25;8.10;99.90
26952;DHT22;14507;52.418;13.398;2023-01-10T14:51:05;8.10;99.90
26952;DHT22;14507;52.418;13.398;2023-01-10T14:53:30;8.10;99.90
26952;DHT22;14507;52.418;13.398;2023-01-10T14:55:56;8.00;99.90
26952;DHT22;14507;52.418;13.398;2023-01-10T14:58:23;8.00;99.90
26952;DHT22;14507;52.418;13.398;2023-01-10T15:00:49;8.00;99.90
26952;DHT22;14507;52.418;13.398;2023-01-10T15:03:20;8.00;99.90
26952;DHT22;14507;52.418;13.398;2023-01-10T15:05:53;8.00;99.90
26952;DHT22;14507;52.418;13.398;2023-01-10T15:08:23;7.90;99.90
26952;DHT22;14507;52.418;13.398;2023-01-10T15:10:52;7.90;99.90
26952;DHT22;14507;52.418;13.398;2023-01-10T15:13:22;7.90;99.90
26952;DHT22;14507;52.418;13.398;2023-01-10T15:15:50;7.90;99.90
26952;DHT22;14507;52.418;13.398;2023-01-10T15:20:41;7.80;99.90
26952;DHT22;14507;52.418;13.398;2023-01-10T15:23:13;7.80;99.90
26952;DHT22;14507;52.418;13.398;2023-01-10T15:25:39;7.70;99.90
26952;DHT22;14507;52.418;13.398;2023-01-10T15:28:17;7.60;99.90
26952;DHT22;14507;52.418;13.398;2023-01-10T15:30:44;7.70;99.90
26952;DHT22;14507;52.418;13.398;2023-01-10T15:33:13;7.70;99.90
26952;DHT22;14507;52.418;13.398;2023-01-10T15:35:40;7.60;99.90
26952;DHT22;14507;52.418;13.398;2023-01-10T15:38:19;7.60;99.90
26952;DHT22;14507;52.418;13.398;2023-01-10T15:40:54;7.50;99.90
26952;DHT22;14507;52.418;13.398;2023-01-10T15:43:26;7.50;99.90
26952;DHT22;14507;52.418;13.398;2023-01-10T15:45:54;7.30;99.90
26952;DHT22;14507;52.418;13.398;2023-01-10T15:48:35;7.50;99.90
26952;DHT22;14507;52.418;13.398;2023-01-10T15:56:27;7.40;99.90
26952;DHT22;14507;52.418;13.398;2023-01-10T15:58:55;7.30;99.90
26952;DHT22;14507;52.418;13.398;2023-01-10T16:01:21;7.30;99.90
26952;DHT22;14507;52.418;13.398;2023-01-10T16:03:48;7.30;99.90
26952;DHT22;14507;52.418;13.398;2023-01-10T16:06:33;7.30;99.90
26952;DHT22;14507;52.418;13.398;2023-01-10T16:09:03;7.30;99.90
26952;DHT22;14507;52.418;13.398;2023-01-10T16:11:47;7.30;99.90
26952;DHT22;14507;52.418;13.398;2023-01-10T16:14:32;7.40;99.90
26952;DHT22;14507;52.418;13.398;2023-01-10T16:16:59;7.30;99.90
26952;DHT22;14507;52.418;13.398;2023-01-10T16:19:24;7.30;99.90
26952;DHT22;14507;52.418;13.398;2023-01-10T16:21:52;7.30;99.90
26952;DHT22;14507;52.418;13.398;2023-01-10T16:24:25;7.20;99.90
26952;DHT22;14507;52.418;13.398;2023-01-10T16:26:51;7.30;99.90
26952;DHT22;14507;52.418;13.398;2023-01-10T16:29:18;7.30;99.90
26952;DHT22;14507;52.418;13.398;2023-01-10T16:31:50;7.20;99.90
26952;DHT22;14507;52.418;13.398;2023-01-10T16:34:17;7.20;99.90
26952;DHT22;14507;52.418;13.398;2023-01-10T16:36:43;7.20;99.90
26952;DHT22;14507;52.418;13.398;2023-01-10T16:39:21;7.10;99.90
26952;DHT22;14507;52.418;13.398;2023-01-10T16:41:47;7.20;99.90
26952;DHT22;14507;52.418;13.398;2023-01-10T16:44:33;7.20;99.90
26952;DHT22;14507;52.418;13.398;2023-01-10T16:46:59;7.10;99.90
26952;DHT22;14507;52.418;13.398;2023-01-10T16:49:25;7.10;99.90
26952;DHT22;14507;52.418;13.398;2023-01-10T16:51:51;7.10;99.90
26952;DHT22;14507;52.418;13.398;2023-01-10T16:54:20;7.10;99.90
26952;DHT22;14507;52.418;13.398;2023-01-10T16:56:47;7.00;99.90
26952;DHT22;14507;52.418;13.398;2023-01-10T16:59:14;7.00;99.90
26952;DHT22;14507;52.418;13.398;2023-01-10T17:01:48;7.00;99.90
26952;DHT22;14507;52.418;13.398;2023-01-10T17:04:22;7.00;99.90
26952;DHT22;14507;52.418;13.398;2023-01-10T17:06:49;6.90;99.90
26952;DHT22;14507;52.418;13.398;2023-01-10T17:09:26;6.90;99.90
26952;DHT22;14507;52.418;13.398;2023-01-10T17:12:03;6.80;99.90
26952;DHT22;14507;52.418;13.398;2023-01-10T17:14:34;6.80;99.90
26952;DHT22;14507;52.418;13.398;2023-01-10T17:17:00;6.80;99.90
26952;DHT22;14507;52.418;13.398;2023-01-10T17:19:25;6.80;99.90
26952;DHT22;14507;52.418;13.398;2023-01-10T17:21:51;6.80;99.90
26952;DHT22;14507;52.418;13.398;2023-01-10T17:24:17;6.70;99.90
26952;DHT22;14507;52.418;13.398;2023-01-10T17:26:43;6.70;99.90
26952;DHT22;14507;52.418;13.398;2023-01-10T17:29:08;6.70;99.90
26952;DHT22;14507;52.418;13.398;2023-01-10T17:31:34;6.70;99.90
26952;DHT22;14507;52.418;13.398;2023-01-10T17:33:59;6.70;99.90